sensor_id;sensor_type;location;lat;lon;timestamp;P1;durP1;ratioP1;P2;durP2;ratioP2
14768;SDS011;7476;49.404;11.152;2024-02-26T00:01:06;5.87;;;3.63;;
14768;SDS011;7476;49.404;11.152;2024-02-26T00:03:32;3.90;;;3.13;;
14768;SDS011;7476;49.404;11.152;2024-02-26T00:06:00;4.23;;;3.27;;
14768;SDS011;7476;49.404;11.152;2024-02-26T00:08:27;6.37;;;3.30;;
14768;SDS011;7476;49.404;11.152;2024-02-26T00:10:54;4.33;;;3.00;;
14768;SDS011;7476;49.404;11.152;2024-02-26T00:13:20;6.13;;;3.67;;
14768;SDS011;7476;49.404;11.152;2024-02-26T00:15:48;4.53;;;3.30;;
14768;SDS011;7476;49.404;11.152;2024-02-26T00:18:15;5.43;;;3.53;;
14768;SDS011;7476;49.404;11.152;2024-02-26T00:20:42;4.13;;;2.97;;
14768;SDS011;7476;49.404;11.152;2024-02-26T00:23:09;5.47;;;3.40;;
14768;SDS011;7476;49.404;11.152;2024-02-26T00:25:35;4.30;;;3.00;;
14768;SDS011;7476;49.404;11.152;2024-02-26T00:28:02;4.70;;;3.50;;
14768;SDS011;7476;49.404;11.152;2024-02-26T00:30:29;5.67;;;3.43;;
14768;SDS011;7476;49.404;11.152;2024-02-26T00:32:57;4.13;;;3.20;;
14768;SDS011;7476;49.404;11.152;2024-02-26T00:35:24;4.83;;;3.33;;
14768;SDS011;7476;49.404;11.152;2024-02-26T00:37:51;5.33;;;3.50;;
14768;SDS011;7476;49.404;11.152;2024-02-26T00:40:17;5.90;;;3.80;;
14768;SDS011;7476;49.404;11.152;2024-02-26T00:42:44;6.20;;;3.80;;
14768;SDS011;7476;49.404;11.152;2024-02-26T00:45:12;6.43;;;3.70;;
14768;SDS011;7476;49.404;11.152;2024-02-26T00:47:39;7.43;;;4.27;;
14768;SDS011;7476;49.404;11.152;2024-02-26T00:50:09;6.33;;;3.97;;
14768;SDS011;7476;49.404;11.152;2024-02-26T00:52:36;5.97;;;3.90;;
14768;SDS011;7476;49.404;11.152;2024-02-26T00:55:03;5.57;;;3.97;;
14768;SDS011;7476;49.404;11.152;2024-02-26T00:57:30;4.93;;;3.43;;
14768;SDS011;7476;49.404;11.152;2024-02-26T00:59:57;8.03;;;4.40;;
14768;SDS011;7476;49.404;11.152;2024-02-26T01:02:24;9.70;;;5.50;;
14768;SDS011;7476;49.404;11.152;2024-02-26T01:04:50;6.03;;;4.33;;
14768;SDS011;7476;49.404;11.152;2024-02-26T01:07:18;7.17;;;4.87;;
14768;SDS011;7476;49.404;11.152;2024-02-26T01:09:45;7.33;;;4.63;;
14768;SDS011;7476;49.404;11.152;2024-02-26T01:12:12;10.93;;;5.97;;
14768;SDS011;7476;49.404;11.152;2024-02-26T01:14:39;9.03;;;5.00;;
14768;SDS011;7476;49.404;11.152;2024-02-26T01:17:05;9.33;;;5.40;;
14768;SDS011;7476;49.404;11.152;2024-02-26T01:19:32;9.93;;;5.13;;
14768;SDS011;7476;49.404;11.152;2024-02-26T01:21:58;9.60;;;5.77;;
14768;SDS011;7476;49.404;11.152;2024-02-26T01:24:26;9.30;;;5.63;;
14768;SDS011;7476;49.404;11.152;2024-02-26T01:26:53;10.40;;;6.40;;
14768;SDS011;7476;49.404;11.152;2024-02-26T01:29:20;10.00;;;5.97;;
14768;SDS011;7476;49.404;11.152;2024-02-26T01:31:46;8.27;;;5.60;;
14768;SDS011;7476;49.404;11.152;2024-02-26T01:34:13;8.77;;;5.37;;
14768;SDS011;7476;49.404;11.152;2024-02-26T01:36:40;8.73;;;5.70;;
14768;SDS011;7476;49.404;11.152;2024-02-26T01:39:06;9.47;;;5.30;;
14768;SDS011;7476;49.404;11.152;2024-02-26T01:41:38;11.20;;;5.97;;
14768;SDS011;7476;49.404;11.152;2024-02-26T01:44:05;7.93;;;5.43;;
14768;SDS011;7476;49.404;11.152;2024-02-26T01:46:33;8.40;;;5.17;;
14768;SDS011;7476;49.404;11.152;2024-02-26T01:49:01;10.60;;;5.27;;
14768;SDS011;7476;49.404;11.152;2024-02-26T01:51:28;11.43;;;5.57;;
14768;SDS011;7476;49.404;11.152;2024-02-26T01:53:55;9.93;;;6.07;;
14768;SDS011;7476;49.404;11.152;2024-02-26T01:56:23;10.50;;;5.60;;
14768;SDS011;7476;49.404;11.152;2024-02-26T01:58:54;8.93;;;6.00;;
14768;SDS011;7476;49.404;11.152;2024-02-26T02:01:21;10.03;;;5.53;;
14768;SDS011;7476;49.404;11.152;2024-02-26T02:03:51;9.00;;;5.60;;
14768;SDS011;7476;49.404;11.152;2024-02-26T02:06:18;11.83;;;6.07;;
14768;SDS011;7476;49.404;11.152;2024-02-26T02:08:45;10.10;;;5.70;;
14768;SDS011;7476;49.404;11.152;2024-02-26T02:11:12;9.60;;;5.77;;
14768;SDS011;7476;49.404;11.152;2024-02-26T02:13:40;12.03;;;5.97;;
14768;SDS011;7476;49.404;11.152;2024-02-26T02:16:08;15.70;;;7.90;;
14768;SDS011;7476;49.404;11.152;2024-02-26T02:18:35;14.23;;;8.20;;
14768;SDS011;7476;49.404;11.152;2024-02-26T02:21:03;17.07;;;9.20;;
14768;SDS011;7476;49.404;11.152;2024-02-26T02:23:30;18.20;;;10.87;;
14768;SDS011;7476;49.404;11.152;2024-02-26T02:25:57;16.73;;;9.77;;
14768;SDS011;7476;49.404;11.152;2024-02-26T02:28:24;16.93;;;10.13;;
14768;SDS011;7476;49.404;11.152;2024-02-26T02:30:52;20.10;;;10.87;;
14768;SDS011;7476;49.404;11.152;2024-02-26T02:33:19;20.17;;;10.27;;
14768;SDS011;7476;49.404;11.152;2024-02-26T02:35:46;19.43;;;10.63;;
14768;SDS011;7476;49.404;11.152;2024-02-26T02:38:14;17.07;;;10.43;;
14768;SDS011;7476;49.404;11.152;2024-02-26T02:40:41;20.57;;;10.80;;
14768;SDS011;7476;49.404;11.152;2024-02-26T02:43:08;17.33;;;10.50;;
14768;SDS011;7476;49.404;11.152;2024-02-26T02:45:35;20.73;;;12.00;;
14768;SDS011;7476;49.404;11.152;2024-02-26T02:48:01;17.47;;;10.80;;
14768;SDS011;7476;49.404;11.152;2024-02-26T02:50:28;18.33;;;10.17;;
14768;SDS011;7476;49.404;11.152;2024-02-26T02:52:55;21.17;;;11.10;;
14768;SDS011;7476;49.404;11.152;2024-02-26T02:55:23;16.90;;;10.33;;
14768;SDS011;7476;49.404;11.152;2024-02-26T02:57:49;17.40;;;10.33;;
14768;SDS011;7476;49.404;11.152;2024-02-26T03:00:16;15.83;;;9.90;;
14768;SDS011;7476;49.404;11.152;2024-02-26T03:02:43;18.37;;;10.83;;
14768;SDS011;7476;49.404;11.152;2024-02-26T03:05:11;14.77;;;9.10;;
14768;SDS011;7476;49.404;11.152;2024-02-26T03:07:38;16.90;;;10.77;;
14768;SDS011;7476;49.404;11.152;2024-02-26T03:10:05;16.50;;;10.53;;
14768;SDS011;7476;49.404;11.152;2024-02-26T03:12:33;16.17;;;10.07;;
14768;SDS011;7476;49.404;11.152;2024-02-26T03:15:00;17.53;;;10.00;;
14768;SDS011;7476;49.404;11.152;2024-02-26T03:17:27;17.20;;;10.03;;
14768;SDS011;7476;49.404;11.152;2024-02-26T03:19:54;15.13;;;9.57;;
14768;SDS011;7476;49.404;11.152;2024-02-26T03:22:21;13.13;;;8.30;;
14768;SDS011;7476;49.404;11.152;2024-02-26T03:24:48;13.60;;;8.60;;
14768;SDS011;7476;49.404;11.152;2024-02-26T03:27:14;15.43;;;8.90;;
14768;SDS011;7476;49.404;11.152;2024-02-26T03:29:42;17.93;;;8.77;;
14768;SDS011;7476;49.404;11.152;2024-02-26T03:32:09;15.87;;;8.80;;
14768;SDS011;7476;49.404;11.152;2024-02-26T03:34:36;16.70;;;9.03;;
14768;SDS011;7476;49.404;11.152;2024-02-26T03:37:04;14.73;;;8.43;;
14768;SDS011;7476;49.404;11.152;2024-02-26T03:39:30;14.50;;;8.93;;
14768;SDS011;7476;49.404;11.152;2024-02-26T03:41:57;13.63;;;8.80;;
14768;SDS011;7476;49.404;11.152;2024-02-26T03:44:24;16.43;;;8.90;;
14768;SDS011;7476;49.404;11.152;2024-02-26T03:46:52;11.73;;;7.80;;
14768;SDS011;7476;49.404;11.152;2024-02-26T03:49:19;12.13;;;7.37;;
14768;SDS011;7476;49.404;11.152;2024-02-26T03:51:45;14.23;;;8.43;;
14768;SDS011;7476;49.404;11.152;2024-02-26T03:54:12;14.97;;;8.07;;
14768;SDS011;7476;49.404;11.152;2024-02-26T03:56:39;13.37;;;7.53;;
14768;SDS011;7476;49.404;11.152;2024-02-26T03:59:05;13.63;;;7.20;;
14768;SDS011;7476;49.404;11.152;2024-02-26T04:01:32;11.00;;;7.30;;
14768;SDS011;7476;49.404;11.152;2024-02-26T04:04:00;12.47;;;7.43;;
14768;SDS011;7476;49.404;11.152;2024-02-26T04:06:27;12.93;;;7.90;;
14768;SDS011;7476;49.404;11.152;2024-02-26T04:08:53;12.47;;;8.30;;
14768;SDS011;7476;49.404;11.152;2024-02-26T04:11:20;16.03;;;8.50;;
14768;SDS011;7476;49.404;11.152;2024-02-26T04:13:47;12.83;;;8.70;;
14768;SDS011;7476;49.404;11.152;2024-02-26T04:16:14;14.37;;;8.73;;
14768;SDS011;7476;49.404;11.152;2024-02-26T04:18:41;12.70;;;8.13;;
14768;SDS011;7476;49.404;11.152;2024-02-26T04:21:09;14.93;;;9.03;;
14768;SDS011;7476;49.404;11.152;2024-02-26T04:23:36;14.60;;;8.67;;
14768;SDS011;7476;49.404;11.152;2024-02-26T04:26:03;13.10;;;8.40;;
14768;SDS011;7476;49.404;11.152;2024-02-26T04:28:30;16.23;;;8.93;;
14768;SDS011;7476;49.404;11.152;2024-02-26T04:30:57;11.60;;;7.97;;
14768;SDS011;7476;49.404;11.152;2024-02-26T04:33:24;12.90;;;7.77;;
14768;SDS011;7476;49.404;11.152;2024-02-26T04:35:50;14.93;;;8.67;;
14768;SDS011;7476;49.404;11.152;2024-02-26T04:38:18;14.20;;;8.47;;
14768;SDS011;7476;49.404;11.152;2024-02-26T04:40:45;13.50;;;7.93;;
14768;SDS011;7476;49.404;11.152;2024-02-26T04:43:12;12.90;;;8.23;;
14768;SDS011;7476;49.404;11.152;2024-02-26T04:45:39;10.67;;;7.63;;
14768;SDS011;7476;49.404;11.152;2024-02-26T04:48:06;12.00;;;7.53;;
14768;SDS011;7476;49.404;11.152;2024-02-26T04:50:33;10.27;;;6.97;;
14768;SDS011;7476;49.404;11.152;2024-02-26T04:53:00;12.53;;;8.17;;
14768;SDS011;7476;49.404;11.152;2024-02-26T04:55:27;12.90;;;7.60;;
14768;SDS011;7476;49.404;11.152;2024-02-26T04:57:54;15.17;;;7.40;;
14768;SDS011;7476;49.404;11.152;2024-02-26T05:00:21;9.47;;;7.03;;
14768;SDS011;7476;49.404;11.152;2024-02-26T05:02:47;11.43;;;7.80;;
14768;SDS011;7476;49.404;11.152;2024-02-26T05:05:14;11.63;;;7.33;;
14768;SDS011;7476;49.404;11.152;2024-02-26T05:07:41;10.57;;;7.63;;
14768;SDS011;7476;49.404;11.152;2024-02-26T05:10:08;11.63;;;7.13;;
14768;SDS011;7476;49.404;11.152;2024-02-26T05:12:36;11.90;;;7.33;;
14768;SDS011;7476;49.404;11.152;2024-02-26T05:15:04;14.80;;;7.07;;
14768;SDS011;7476;49.404;11.152;2024-02-26T05:17:31;12.07;;;7.30;;
14768;SDS011;7476;49.404;11.152;2024-02-26T05:19:58;13.30;;;7.30;;
14768;SDS011;7476;49.404;11.152;2024-02-26T05:22:25;10.43;;;6.80;;
14768;SDS011;7476;49.404;11.152;2024-02-26T05:24:52;12.20;;;7.33;;
14768;SDS011;7476;49.404;11.152;2024-02-26T05:27:18;9.80;;;7.27;;
14768;SDS011;7476;49.404;11.152;2024-02-26T05:29:46;13.27;;;7.37;;
14768;SDS011;7476;49.404;11.152;2024-02-26T05:32:13;18.87;;;11.97;;
14768;SDS011;7476;49.404;11.152;2024-02-26T05:34:40;12.57;;;7.97;;
14768;SDS011;7476;49.404;11.152;2024-02-26T05:37:06;10.37;;;7.33;;
14768;SDS011;7476;49.404;11.152;2024-02-26T05:39:33;12.23;;;7.47;;
14768;SDS011;7476;49.404;11.152;2024-02-26T05:42:00;12.97;;;6.87;;
14768;SDS011;7476;49.404;11.152;2024-02-26T05:44:26;10.47;;;6.63;;
14768;SDS011;7476;49.404;11.152;2024-02-26T05:46:55;11.90;;;7.70;;
14768;SDS011;7476;49.404;11.152;2024-02-26T05:49:21;10.63;;;6.90;;
14768;SDS011;7476;49.404;11.152;2024-02-26T05:51:48;9.07;;;6.40;;
14768;SDS011;7476;49.404;11.152;2024-02-26T05:54:15;10.17;;;6.40;;
14768;SDS011;7476;49.404;11.152;2024-02-26T05:56:41;10.03;;;6.30;;
14768;SDS011;7476;49.404;11.152;2024-02-26T05:59:08;9.87;;;5.93;;
14768;SDS011;7476;49.404;11.152;2024-02-26T06:01:35;9.13;;;6.27;;
14768;SDS011;7476;49.404;11.152;2024-02-26T06:04:03;9.67;;;6.23;;
14768;SDS011;7476;49.404;11.152;2024-02-26T06:06:30;10.00;;;6.73;;
14768;SDS011;7476;49.404;11.152;2024-02-26T06:08:57;9.40;;;6.60;;
14768;SDS011;7476;49.404;11.152;2024-02-26T06:11:23;9.63;;;6.50;;
14768;SDS011;7476;49.404;11.152;2024-02-26T06:13:50;9.80;;;6.23;;
14768;SDS011;7476;49.404;11.152;2024-02-26T06:16:17;9.40;;;6.23;;
14768;SDS011;7476;49.404;11.152;2024-02-26T06:18:43;10.57;;;5.73;;
14768;SDS011;7476;49.404;11.152;2024-02-26T06:21:11;8.93;;;5.90;;
14768;SDS011;7476;49.404;11.152;2024-02-26T06:23:38;11.40;;;6.10;;
14768;SDS011;7476;49.404;11.152;2024-02-26T06:26:05;8.80;;;5.83;;
14768;SDS011;7476;49.404;11.152;2024-02-26T06:28:31;10.43;;;6.40;;
14768;SDS011;7476;49.404;11.152;2024-02-26T06:31:00;7.77;;;5.90;;
14768;SDS011;7476;49.404;11.152;2024-02-26T06:33:27;8.70;;;6.37;;
14768;SDS011;7476;49.404;11.152;2024-02-26T06:35:54;11.07;;;5.70;;
14768;SDS011;7476;49.404;11.152;2024-02-26T06:38:22;12.63;;;6.50;;
14768;SDS011;7476;49.404;11.152;2024-02-26T06:40:49;7.87;;;5.73;;
14768;SDS011;7476;49.404;11.152;2024-02-26T06:43:15;7.67;;;5.17;;
14768;SDS011;7476;49.404;11.152;2024-02-26T06:45:42;7.90;;;5.43;;
14768;SDS011;7476;49.404;11.152;2024-02-26T06:48:09;9.13;;;5.37;;
14768;SDS011;7476;49.404;11.152;2024-02-26T06:50:35;7.73;;;5.47;;
14768;SDS011;7476;49.404;11.152;2024-02-26T06:53:02;7.07;;;4.60;;
14768;SDS011;7476;49.404;11.152;2024-02-26T06:55:30;8.03;;;5.00;;
14768;SDS011;7476;49.404;11.152;2024-02-26T06:57:57;5.97;;;4.23;;
14768;SDS011;7476;49.404;11.152;2024-02-26T07:00:24;7.27;;;4.67;;
14768;SDS011;7476;49.404;11.152;2024-02-26T07:02:50;8.27;;;4.77;;
14768;SDS011;7476;49.404;11.152;2024-02-26T07:05:17;6.70;;;4.67;;
14768;SDS011;7476;49.404;11.152;2024-02-26T07:07:43;6.43;;;4.73;;
14768;SDS011;7476;49.404;11.152;2024-02-26T07:10:10;5.80;;;4.40;;
14768;SDS011;7476;49.404;11.152;2024-02-26T07:12:38;6.57;;;4.40;;
14768;SDS011;7476;49.404;11.152;2024-02-26T07:15:05;6.43;;;4.70;;
14768;SDS011;7476;49.404;11.152;2024-02-26T07:17:33;6.27;;;4.37;;
14768;SDS011;7476;49.404;11.152;2024-02-26T07:20:00;6.63;;;4.53;;
14768;SDS011;7476;49.404;11.152;2024-02-26T07:22:29;6.40;;;4.20;;
14768;SDS011;7476;49.404;11.152;2024-02-26T07:24:56;7.03;;;3.73;;
14768;SDS011;7476;49.404;11.152;2024-02-26T07:27:22;6.03;;;4.43;;
14768;SDS011;7476;49.404;11.152;2024-02-26T07:29:51;5.97;;;4.10;;
14768;SDS011;7476;49.404;11.152;2024-02-26T07:32:17;8.20;;;3.97;;
14768;SDS011;7476;49.404;11.152;2024-02-26T07:34:44;5.97;;;4.20;;
14768;SDS011;7476;49.404;11.152;2024-02-26T07:37:11;4.47;;;3.67;;
14768;SDS011;7476;49.404;11.152;2024-02-26T07:39:37;4.87;;;3.70;;
14768;SDS011;7476;49.404;11.152;2024-02-26T07:42:04;6.47;;;3.60;;
14768;SDS011;7476;49.404;11.152;2024-02-26T07:44:31;4.90;;;3.80;;
14768;SDS011;7476;49.404;11.152;2024-02-26T07:46:59;5.87;;;3.77;;
14768;SDS011;7476;49.404;11.152;2024-02-26T07:49:26;5.77;;;3.87;;
14768;SDS011;7476;49.404;11.152;2024-02-26T07:51:53;5.63;;;3.80;;
14768;SDS011;7476;49.404;11.152;2024-02-26T07:54:22;4.63;;;3.80;;
14768;SDS011;7476;49.404;11.152;2024-02-26T07:56:49;4.27;;;3.10;;
14768;SDS011;7476;49.404;11.152;2024-02-26T07:59:16;6.37;;;3.70;;
14768;SDS011;7476;49.404;11.152;2024-02-26T08:01:43;4.20;;;3.60;;
14768;SDS011;7476;49.404;11.152;2024-02-26T08:04:12;3.73;;;3.10;;
14768;SDS011;7476;49.404;11.152;2024-02-26T08:06:38;6.33;;;3.40;;
14768;SDS011;7476;49.404;11.152;2024-02-26T08:09:05;4.33;;;3.27;;
14768;SDS011;7476;49.404;11.152;2024-02-26T08:11:31;5.57;;;3.40;;
14768;SDS011;7476;49.404;11.152;2024-02-26T08:13:58;4.23;;;3.03;;
14768;SDS011;7476;49.404;11.152;2024-02-26T08:16:25;4.87;;;3.17;;
14768;SDS011;7476;49.404;11.152;2024-02-26T08:18:51;3.90;;;3.30;;
14768;SDS011;7476;49.404;11.152;2024-02-26T08:21:19;4.10;;;3.10;;
14768;SDS011;7476;49.404;11.152;2024-02-26T08:23:46;4.10;;;3.00;;
14768;SDS011;7476;49.404;11.152;2024-02-26T08:26:13;4.50;;;3.10;;
14768;SDS011;7476;49.404;11.152;2024-02-26T08:28:39;4.33;;;3.07;;
14768;SDS011;7476;49.404;11.152;2024-02-26T08:31:06;4.00;;;2.90;;
14768;SDS011;7476;49.404;11.152;2024-02-26T08:33:33;3.60;;;2.70;;
14768;SDS011;7476;49.404;11.152;2024-02-26T08:36:03;3.77;;;2.90;;
14768;SDS011;7476;49.404;11.152;2024-02-26T08:38:31;4.87;;;3.03;;
14768;SDS011;7476;49.404;11.152;2024-02-26T08:40:59;3.60;;;2.87;;
14768;SDS011;7476;49.404;11.152;2024-02-26T08:43:26;4.17;;;3.03;;
14768;SDS011;7476;49.404;11.152;2024-02-26T08:45:53;4.70;;;2.97;;
14768;SDS011;7476;49.404;11.152;2024-02-26T08:48:21;3.93;;;3.00;;
14768;SDS011;7476;49.404;11.152;2024-02-26T08:50:47;3.80;;;2.90;;
14768;SDS011;7476;49.404;11.152;2024-02-26T08:53:14;3.83;;;2.80;;
14768;SDS011;7476;49.404;11.152;2024-02-26T08:55:42;4.43;;;2.57;;
14768;SDS011;7476;49.404;11.152;2024-02-26T08:58:08;3.60;;;2.67;;
14768;SDS011;7476;49.404;11.152;2024-02-26T09:00:35;5.07;;;2.80;;
14768;SDS011;7476;49.404;11.152;2024-02-26T09:03:02;4.67;;;3.37;;
14768;SDS011;7476;49.404;11.152;2024-02-26T09:05:29;3.60;;;2.87;;
14768;SDS011;7476;49.404;11.152;2024-02-26T09:07:56;3.23;;;2.80;;
14768;SDS011;7476;49.404;11.152;2024-02-26T09:10:22;3.83;;;2.77;;
14768;SDS011;7476;49.404;11.152;2024-02-26T09:12:50;3.90;;;2.93;;
14768;SDS011;7476;49.404;11.152;2024-02-26T09:15:17;5.63;;;3.30;;
14768;SDS011;7476;49.404;11.152;2024-02-26T09:17:44;4.03;;;2.77;;
14768;SDS011;7476;49.404;11.152;2024-02-26T09:20:11;3.67;;;2.80;;
14768;SDS011;7476;49.404;11.152;2024-02-26T09:22:40;4.07;;;3.10;;
14768;SDS011;7476;49.404;11.152;2024-02-26T09:25:08;3.37;;;2.70;;
14768;SDS011;7476;49.404;11.152;2024-02-26T09:27:34;3.90;;;2.90;;
14768;SDS011;7476;49.404;11.152;2024-02-26T09:30:03;3.40;;;2.73;;
14768;SDS011;7476;49.404;11.152;2024-02-26T09:32:30;3.77;;;2.73;;
14768;SDS011;7476;49.404;11.152;2024-02-26T09:34:57;3.00;;;2.70;;
14768;SDS011;7476;49.404;11.152;2024-02-26T09:37:23;6.17;;;2.93;;
14768;SDS011;7476;49.404;11.152;2024-02-26T09:39:50;3.17;;;2.80;;
14768;SDS011;7476;49.404;11.152;2024-02-26T09:42:17;3.97;;;2.97;;
14768;SDS011;7476;49.404;11.152;2024-02-26T09:44:45;6.17;;;3.10;;
14768;SDS011;7476;49.404;11.152;2024-02-26T09:47:15;4.00;;;3.07;;
14768;SDS011;7476;49.404;11.152;2024-02-26T09:49:42;6.03;;;2.80;;
14768;SDS011;7476;49.404;11.152;2024-02-26T09:52:09;3.30;;;2.80;;
14768;SDS011;7476;49.404;11.152;2024-02-26T09:54:36;5.33;;;3.00;;
14768;SDS011;7476;49.404;11.152;2024-02-26T09:57:04;4.40;;;3.00;;
14768;SDS011;7476;49.404;11.152;2024-02-26T09:59:39;4.00;;;3.10;;
14768;SDS011;7476;49.404;11.152;2024-02-26T10:02:07;4.83;;;3.40;;
14768;SDS011;7476;49.404;11.152;2024-02-26T10:04:38;3.37;;;2.70;;
14768;SDS011;7476;49.404;11.152;2024-02-26T10:07:06;4.63;;;3.03;;
14768;SDS011;7476;49.404;11.152;2024-02-26T10:09:36;3.73;;;3.00;;
14768;SDS011;7476;49.404;11.152;2024-02-26T10:12:03;3.90;;;2.93;;
14768;SDS011;7476;49.404;11.152;2024-02-26T10:14:31;5.17;;;3.20;;
14768;SDS011;7476;49.404;11.152;2024-02-26T10:16:57;5.83;;;3.17;;
14768;SDS011;7476;49.404;11.152;2024-02-26T10:19:26;5.70;;;2.60;;
14768;SDS011;7476;49.404;11.152;2024-02-26T10:21:57;3.73;;;2.80;;
14768;SDS011;7476;49.404;11.152;2024-02-26T10:24:24;2.97;;;2.63;;
14768;SDS011;7476;49.404;11.152;2024-02-26T10:26:51;3.03;;;2.63;;
14768;SDS011;7476;49.404;11.152;2024-02-26T10:29:18;2.87;;;2.33;;
14768;SDS011;7476;49.404;11.152;2024-02-26T10:31:45;2.93;;;2.30;;
14768;SDS011;7476;49.404;11.152;2024-02-26T10:34:12;2.97;;;2.53;;
14768;SDS011;7476;49.404;11.152;2024-02-26T10:36:41;3.10;;;2.60;;
14768;SDS011;7476;49.404;11.152;2024-02-26T10:39:10;4.13;;;2.43;;
14768;SDS011;7476;49.404;11.152;2024-02-26T10:41:39;3.30;;;2.50;;
14768;SDS011;7476;49.404;11.152;2024-02-26T10:44:08;2.93;;;2.37;;
14768;SDS011;7476;49.404;11.152;2024-02-26T10:46:37;2.90;;;2.53;;
14768;SDS011;7476;49.404;11.152;2024-02-26T10:49:04;3.60;;;2.40;;
14768;SDS011;7476;49.404;11.152;2024-02-26T10:51:33;3.50;;;2.47;;
14768;SDS011;7476;49.404;11.152;2024-02-26T10:54:03;4.37;;;2.30;;
14768;SDS011;7476;49.404;11.152;2024-02-26T10:56:34;3.00;;;2.60;;
14768;SDS011;7476;49.404;11.152;2024-02-26T10:59:02;4.50;;;2.87;;
14768;SDS011;7476;49.404;11.152;2024-02-26T11:01:30;2.93;;;2.17;;
14768;SDS011;7476;49.404;11.152;2024-02-26T11:03:57;4.10;;;2.40;;
14768;SDS011;7476;49.404;11.152;2024-02-26T11:06:26;2.37;;;2.17;;
14768;SDS011;7476;49.404;11.152;2024-02-26T11:08:54;3.90;;;2.60;;
14768;SDS011;7476;49.404;11.152;2024-02-26T11:11:21;2.57;;;2.23;;
14768;SDS011;7476;49.404;11.152;2024-02-26T11:13:50;3.73;;;2.27;;
14768;SDS011;7476;49.404;11.152;2024-02-26T11:16:18;2.40;;;2.20;;
14768;SDS011;7476;49.404;11.152;2024-02-26T11:18:46;3.60;;;2.20;;
14768;SDS011;7476;49.404;11.152;2024-02-26T11:21:15;2.93;;;2.10;;
14768;SDS011;7476;49.404;11.152;2024-02-26T11:23:43;2.47;;;2.27;;
14768;SDS011;7476;49.404;11.152;2024-02-26T11:26:11;3.10;;;2.43;;
14768;SDS011;7476;49.404;11.152;2024-02-26T11:28:38;3.27;;;2.10;;
14768;SDS011;7476;49.404;11.152;2024-02-26T11:31:08;3.03;;;2.33;;
14768;SDS011;7476;49.404;11.152;2024-02-26T11:33:35;3.27;;;2.03;;
14768;SDS011;7476;49.404;11.152;2024-02-26T11:36:02;2.87;;;2.40;;
14768;SDS011;7476;49.404;11.152;2024-02-26T11:38:33;3.33;;;2.50;;
14768;SDS011;7476;49.404;11.152;2024-02-26T11:41:00;3.43;;;2.60;;
14768;SDS011;7476;49.404;11.152;2024-02-26T11:46:29;2.63;;;2.30;;
14768;SDS011;7476;49.404;11.152;2024-02-26T11:48:58;3.10;;;2.70;;
14768;SDS011;7476;49.404;11.152;2024-02-26T11:51:26;2.70;;;2.27;;
14768;SDS011;7476;49.404;11.152;2024-02-26T11:53:53;2.97;;;2.57;;
14768;SDS011;7476;49.404;11.152;2024-02-26T11:56:22;3.63;;;2.70;;
14768;SDS011;7476;49.404;11.152;2024-02-26T11:58:57;2.30;;;2.10;;
14768;SDS011;7476;49.404;11.152;2024-02-26T12:01:38;2.53;;;2.33;;
14768;SDS011;7476;49.404;11.152;2024-02-26T12:04:13;3.77;;;2.27;;
14768;SDS011;7476;49.404;11.152;2024-02-26T12:06:45;3.10;;;2.33;;
14768;SDS011;7476;49.404;11.152;2024-02-26T12:09:13;4.20;;;2.43;;
14768;SDS011;7476;49.404;11.152;2024-02-26T12:11:56;3.03;;;2.50;;
14768;SDS011;7476;49.404;11.152;2024-02-26T12:14:24;2.43;;;2.20;;
14768;SDS011;7476;49.404;11.152;2024-02-26T12:16:53;2.20;;;1.87;;
14768;SDS011;7476;49.404;11.152;2024-02-26T12:19:23;2.40;;;2.20;;
14768;SDS011;7476;49.404;11.152;2024-02-26T12:21:50;3.20;;;2.10;;
14768;SDS011;7476;49.404;11.152;2024-02-26T12:24:18;2.70;;;2.17;;
14768;SDS011;7476;49.404;11.152;2024-02-26T12:26:46;3.47;;;2.13;;
14768;SDS011;7476;49.404;11.152;2024-02-26T12:29:12;3.07;;;2.20;;
14768;SDS011;7476;49.404;11.152;2024-02-26T12:31:40;2.60;;;2.40;;
14768;SDS011;7476;49.404;11.152;2024-02-26T12:34:09;2.20;;;2.00;;
14768;SDS011;7476;49.404;11.152;2024-02-26T12:36:35;3.00;;;2.30;;
14768;SDS011;7476;49.404;11.152;2024-02-26T12:39:03;2.60;;;2.30;;
14768;SDS011;7476;49.404;11.152;2024-02-26T12:41:30;4.47;;;2.50;;
14768;SDS011;7476;49.404;11.152;2024-02-26T12:43:57;2.40;;;2.20;;
14768;SDS011;7476;49.404;11.152;2024-02-26T12:46:25;1.97;;;1.80;;
14768;SDS011;7476;49.404;11.152;2024-02-26T12:48:51;2.30;;;1.80;;
14768;SDS011;7476;49.404;11.152;2024-02-26T12:51:20;3.03;;;2.10;;
14768;SDS011;7476;49.404;11.152;2024-02-26T12:53:47;3.67;;;2.00;;
14768;SDS011;7476;49.404;11.152;2024-02-26T12:56:17;3.30;;;1.80;;
14768;SDS011;7476;49.404;11.152;2024-02-26T12:58:44;2.20;;;2.00;;
14768;SDS011;7476;49.404;11.152;2024-02-26T13:01:13;2.10;;;1.90;;
14768;SDS011;7476;49.404;11.152;2024-02-26T13:03:41;2.17;;;1.90;;
14768;SDS011;7476;49.404;11.152;2024-02-26T13:06:08;2.93;;;2.47;;
14768;SDS011;7476;49.404;11.152;2024-02-26T13:08:37;2.20;;;2.00;;
14768;SDS011;7476;49.404;11.152;2024-02-26T13:11:04;2.70;;;1.80;;
14768;SDS011;7476;49.404;11.152;2024-02-26T13:13:30;2.13;;;1.77;;
14768;SDS011;7476;49.404;11.152;2024-02-26T13:16:03;2.00;;;1.80;;
14768;SDS011;7476;49.404;11.152;2024-02-26T13:18:33;2.73;;;1.77;;
14768;SDS011;7476;49.404;11.152;2024-02-26T13:21:06;4.07;;;2.00;;
14768;SDS011;7476;49.404;11.152;2024-02-26T13:23:35;2.70;;;1.83;;
14768;SDS011;7476;49.404;11.152;2024-02-26T13:26:03;3.33;;;1.90;;
14768;SDS011;7476;49.404;11.152;2024-02-26T13:28:29;2.57;;;1.60;;
14768;SDS011;7476;49.404;11.152;2024-02-26T13:30:57;2.13;;;1.83;;
14768;SDS011;7476;49.404;11.152;2024-02-26T13:33:26;2.00;;;1.80;;
14768;SDS011;7476;49.404;11.152;2024-02-26T13:35:54;2.80;;;1.87;;
14768;SDS011;7476;49.404;11.152;2024-02-26T13:38:21;2.00;;;1.80;;
14768;SDS011;7476;49.404;11.152;2024-02-26T13:40:49;2.20;;;2.00;;
14768;SDS011;7476;49.404;11.152;2024-02-26T13:43:16;2.10;;;1.83;;
14768;SDS011;7476;49.404;11.152;2024-02-26T13:45:42;2.07;;;1.80;;
14768;SDS011;7476;49.404;11.152;2024-02-26T13:48:09;2.20;;;1.80;;
14768;SDS011;7476;49.404;11.152;2024-02-26T13:50:37;2.53;;;1.90;;
14768;SDS011;7476;49.404;11.152;2024-02-26T13:53:04;2.80;;;2.00;;
14768;SDS011;7476;49.404;11.152;2024-02-26T13:55:31;2.33;;;1.77;;
14768;SDS011;7476;49.404;11.152;2024-02-26T13:57:59;2.17;;;1.70;;
14768;SDS011;7476;49.404;11.152;2024-02-26T14:00:27;2.37;;;1.83;;
14768;SDS011;7476;49.404;11.152;2024-02-26T14:02:54;2.43;;;1.67;;
14768;SDS011;7476;49.404;11.152;2024-02-26T14:05:20;2.67;;;2.07;;
14768;SDS011;7476;49.404;11.152;2024-02-26T14:07:47;4.67;;;1.73;;
14768;SDS011;7476;49.404;11.152;2024-02-26T14:10:14;3.40;;;2.00;;
14768;SDS011;7476;49.404;11.152;2024-02-26T14:12:41;3.20;;;1.70;;
14768;SDS011;7476;49.404;11.152;2024-02-26T14:15:09;2.20;;;1.60;;
14768;SDS011;7476;49.404;11.152;2024-02-26T14:17:36;2.00;;;1.77;;
14768;SDS011;7476;49.404;11.152;2024-02-26T14:20:04;2.00;;;1.70;;
14768;SDS011;7476;49.404;11.152;2024-02-26T14:22:32;2.00;;;1.80;;
14768;SDS011;7476;49.404;11.152;2024-02-26T14:24:59;3.33;;;1.80;;
14768;SDS011;7476;49.404;11.152;2024-02-26T14:27:26;2.87;;;1.80;;
14768;SDS011;7476;49.404;11.152;2024-02-26T14:29:52;1.97;;;1.77;;
14768;SDS011;7476;49.404;11.152;2024-02-26T14:32:21;1.70;;;1.60;;
14768;SDS011;7476;49.404;11.152;2024-02-26T14:34:48;2.70;;;2.20;;
14768;SDS011;7476;49.404;11.152;2024-02-26T14:37:14;2.33;;;1.97;;
14768;SDS011;7476;49.404;11.152;2024-02-26T14:39:41;2.10;;;1.90;;
14768;SDS011;7476;49.404;11.152;2024-02-26T14:42:08;2.93;;;2.10;;
14768;SDS011;7476;49.404;11.152;2024-02-26T14:44:34;2.83;;;2.13;;
14768;SDS011;7476;49.404;11.152;2024-02-26T14:47:02;3.53;;;2.10;;